sensor_id;sensor_type;location;lat;lon;timestamp;temperature;humidity
3356;DHT22;1691;52.486;13.374;2023-07-31T00:02:19;16.30;97.20
3356;DHT22;1691;52.486;13.374;2023-07-31T00:04:46;16.30;97.20
3356;DHT22;1691;52.486;13.374;2023-07-31T00:07:13;16.20;97.30
3356;DHT22;1691;52.486;13.374;2023-07-31T00:09:39;16.10;97.40
3356;DHT22;1691;52.486;13.374;2023-07-31T00:12:07;16.00;97.50
3356;DHT22;1691;52.486;13.374;2023-07-31T00:14:34;15.90;97.70
3356;DHT22;1691;52.486;13.374;2023-07-31T00:17:01;15.90;97.80
3356;DHT22;1691;52.486;13.374;2023-07-31T00:19:28;15.80;98.00
3356;DHT22;1691;52.486;13.374;2023-07-31T00:21:54;15.70;98.30
3356;DHT22;1691;52.486;13.374;2023-07-31T00:24:21;15.70;98.50
3356;DHT22;1691;52.486;13.374;2023-07-31T00:26:48;15.70;98.60
3356;DHT22;1691;52.486;13.374;2023-07-31T00:29:15;15.70;98.70
3356;DHT22;1691;52.486;13.374;2023-07-31T00:31:42;15.70;98.70
3356;DHT22;1691;52.486;13.374;2023-07-31T00:34:09;15.70;98.70
3356;DHT22;1691;52.486;13.374;2023-07-31T00:36:36;15.70;98.70
3356;DHT22;1691;52.486;13.374;2023-07-31T00:39:03;15.70;98.70
3356;DHT22;1691;52.486;13.374;2023-07-31T00:41:31;15.70;98.70
3356;DHT22;1691;52.486;13.374;2023-07-31T00:43:58;15.70;98.70
3356;DHT22;1691;52.486;13.374;2023-07-31T00:46:24;15.70;98.70
3356;DHT22;1691;52.486;13.374;2023-07-31T00:48:51;15.80;98.70
3356;DHT22;1691;52.486;13.374;2023-07-31T00:51:18;15.80;98.70
3356;DHT22;1691;52.486;13.374;2023-07-31T00:53:45;15.80;98.70
3356;DHT22;1691;52.486;13.374;2023-07-31T00:56:13;15.90;98.70
3356;DHT22;1691;52.486;13.374;2023-07-31T00:58:40;15.90;98.70
3356;DHT22;1691;52.486;13.374;2023-07-31T01:01:07;16.00;98.70
3356;DHT22;1691;52.486;13.374;2023-07-31T01:03:34;16.00;98.70
3356;DHT22;1691;52.486;13.374;2023-07-31T01:11:27;16.20;98.70
3356;DHT22;1691;52.486;13.374;2023-07-31T01:13:58;16.20;98.70
3356;DHT22;1691;52.486;13.374;2023-07-31T01:16:26;16.20;98.70
3356;DHT22;1691;52.486;13.374;2023-07-31T01:18:53;16.30;98.70
3356;DHT22;1691;52.486;13.374;2023-07-31T01:26:37;16.30;98.70
3356;DHT22;1691;52.486;13.374;2023-07-31T01:29:10;16.20;98.70
3356;DHT22;1691;52.486;13.374;2023-07-31T01:31:41;16.20;98.70
3356;DHT22;1691;52.486;13.374;2023-07-31T01:34:10;16.20;98.70
3356;DHT22;1691;52.486;13.374;2023-07-31T01:36:38;16.20;98.70
3356;DHT22;1691;52.486;13.374;2023-07-31T01:39:05;16.20;98.70
3356;DHT22;1691;52.486;13.374;2023-07-31T01:41:32;16.20;98.70
3356;DHT22;1691;52.486;13.374;2023-07-31T01:43:59;16.20;98.70
3356;DHT22;1691;52.486;13.374;2023-07-31T01:46:25;16.20;98.70
3356;DHT22;1691;52.486;13.374;2023-07-31T01:48:52;16.30;98.70
3356;DHT22;1691;52.486;13.374;2023-07-31T01:51:19;16.30;98.70
3356;DHT22;1691;52.486;13.374;2023-07-31T01:53:46;16.30;98.70
3356;DHT22;1691;52.486;13.374;2023-07-31T01:56:13;16.30;98.70
3356;DHT22;1691;52.486;13.374;2023-07-31T01:58:40;16.30;98.70
3356;DHT22;1691;52.486;13.374;2023-07-31T02:01:06;16.30;98.70
3356;DHT22;1691;52.486;13.374;2023-07-31T02:03:33;16.30;98.70
3356;DHT22;1691;52.486;13.374;2023-07-31T02:06:00;16.40;98.70
3356;DHT22;1691;52.486;13.374;2023-07-31T02:08:27;16.40;98.70
3356;DHT22;1691;52.486;13.374;2023-07-31T02:10:54;16.40;98.70
3356;DHT22;1691;52.486;13.374;2023-07-31T02:13:21;16.40;98.70
3356;DHT22;1691;52.486;13.374;2023-07-31T02:15:48;16.40;98.70
3356;DHT22;1691;52.486;13.374;2023-07-31T02:18:15;16.40;98.70
3356;DHT22;1691;52.486;13.374;2023-07-31T02:20:41;16.40;98.70
3356;DHT22;1691;52.486;13.374;2023-07-31T02:23:08;16.40;98.70
3356;DHT22;1691;52.486;13.374;2023-07-31T02:25:35;16.40;98.70
3356;DHT22;1691;52.486;13.374;2023-07-31T02:28:02;16.40;98.70
3356;DHT22;1691;52.486;13.374;2023-07-31T02:30:29;16.30;98.70
3356;DHT22;1691;52.486;13.374;2023-07-31T02:32:56;16.30;98.70
3356;DHT22;1691;52.486;13.374;2023-07-31T02:35:23;16.30;98.70
3356;DHT22;1691;52.486;13.374;2023-07-31T02:37:50;16.30;98.70
3356;DHT22;1691;52.486;13.374;2023-07-31T02:40:17;16.30;98.70
3356;DHT22;1691;52.486;13.374;2023-07-31T02:42:43;16.30;98.70
3356;DHT22;1691;52.486;13.374;2023-07-31T02:45:10;16.30;98.70
3356;DHT22;1691;52.486;13.374;2023-07-31T02:47:37;16.30;98.70
3356;DHT22;1691;52.486;13.374;2023-07-31T02:50:04;16.30;98.70
3356;DHT22;1691;52.486;13.374;2023-07-31T02:52:31;16.30;98.70
3356;DHT22;1691;52.486;13.374;2023-07-31T02:54:58;16.30;98.70
3356;DHT22;1691;52.486;13.374;2023-07-31T02:57:25;16.30;98.70
3356;DHT22;1691;52.486;13.374;2023-07-31T02:59:52;16.30;98.70
3356;DHT22;1691;52.486;13.374;2023-07-31T03:02:19;16.30;98.70
3356;DHT22;1691;52.486;13.374;2023-07-31T03:04:46;16.30;98.70
3356;DHT22;1691;52.486;13.374;2023-07-31T03:07:13;16.30;98.70
3356;DHT22;1691;52.486;13.374;2023-07-31T03:09:40;16.20;98.70
3356;DHT22;1691;52.486;13.374;2023-07-31T03:12:07;16.20;98.70
3356;DHT22;1691;52.486;13.374;2023-07-31T03:14:34;16.20;98.70
3356;DHT22;1691;52.486;13.374;2023-07-31T03:17:01;16.20;98.70
3356;DHT22;1691;52.486;13.374;2023-07-31T03:19:30;16.20;98.70
3356;DHT22;1691;52.486;13.374;2023-07-31T03:21:59;16.20;98.70
3356;DHT22;1691;52.486;13.374;2023-07-31T03:24:26;16.20;98.70
3356;DHT22;1691;52.486;13.374;2023-07-31T03:26:53;16.20;98.70
3356;DHT22;1691;52.486;13.374;2023-07-31T03:29:19;16.20;98.70
3356;DHT22;1691;52.486;13.374;2023-07-31T03:31:50;16.20;98.70
3356;DHT22;1691;52.486;13.374;2023-07-31T03:34:17;16.20;98.70
3356;DHT22;1691;52.486;13.374;2023-07-31T03:36:44;16.20;98.70
3356;DHT22;1691;52.486;13.374;2023-07-31T03:39:11;16.10;98.70
3356;DHT22;1691;52.486;13.374;2023-07-31T03:41:37;16.10;98.70
3356;DHT22;1691;52.486;13.374;2023-07-31T03:44:04;16.10;98.70
3356;DHT22;1691;52.486;13.374;2023-07-31T03:46:31;16.20;98.70
3356;DHT22;1691;52.486;13.374;2023-07-31T03:48:59;16.20;98.70
3356;DHT22;1691;52.486;13.374;2023-07-31T03:51:26;16.10;98.70
3356;DHT22;1691;52.486;13.374;2023-07-31T03:53:53;16.20;98.70
3356;DHT22;1691;52.486;13.374;2023-07-31T03:56:19;16.10;98.70
3356;DHT22;1691;52.486;13.374;2023-07-31T03:58:46;16.10;98.70
3356;DHT22;1691;52.486;13.374;2023-07-31T04:01:13;16.10;98.70
3356;DHT22;1691;52.486;13.374;2023-07-31T04:03:40;16.10;98.70
3356;DHT22;1691;52.486;13.374;2023-07-31T04:06:07;16.10;98.70
3356;DHT22;1691;52.486;13.374;2023-07-31T04:08:34;16.10;98.70
3356;DHT22;1691;52.486;13.374;2023-07-31T04:11:01;16.10;98.70
3356;DHT22;1691;52.486;13.374;2023-07-31T04:13:29;16.10;98.70
3356;DHT22;1691;52.486;13.374;2023-07-31T04:15:56;16.20;98.70
3356;DHT22;1691;52.486;13.374;2023-07-31T04:18:25;16.20;98.70
3356;DHT22;1691;52.486;13.374;2023-07-31T04:20:51;16.20;98.70
3356;DHT22;1691;52.486;13.374;2023-07-31T04:23:18;16.30;98.70
3356;DHT22;1691;52.486;13.374;2023-07-31T04:25:45;16.30;98.70
3356;DHT22;1691;52.486;13.374;2023-07-31T04:28:12;16.30;98.70
3356;DHT22;1691;52.486;13.374;2023-07-31T04:30:39;16.30;98.70
3356;DHT22;1691;52.486;13.374;2023-07-31T04:33:06;16.30;98.70
3356;DHT22;1691;52.486;13.374;2023-07-31T04:35:33;16.30;98.70
3356;DHT22;1691;52.486;13.374;2023-07-31T04:38:00;16.30;98.70
3356;DHT22;1691;52.486;13.374;2023-07-31T04:40:27;16.40;98.70
3356;DHT22;1691;52.486;13.374;2023-07-31T04:42:54;16.40;98.70
3356;DHT22;1691;52.486;13.374;2023-07-31T04:45:21;16.40;98.70
3356;DHT22;1691;52.486;13.374;2023-07-31T04:47:48;16.50;98.70
3356;DHT22;1691;52.486;13.374;2023-07-31T04:50:15;16.50;98.70
3356;DHT22;1691;52.486;13.374;2023-07-31T04:52:41;16.50;98.70
3356;DHT22;1691;52.486;13.374;2023-07-31T04:55:08;16.50;98.70
3356;DHT22;1691;52.486;13.374;2023-07-31T04:57:35;16.60;98.70
3356;DHT22;1691;52.486;13.374;2023-07-31T05:00:02;16.60;98.70
3356;DHT22;1691;52.486;13.374;2023-07-31T05:02:29;16.60;98.70
3356;DHT22;1691;52.486;13.374;2023-07-31T05:04:56;16.70;98.70
3356;DHT22;1691;52.486;13.374;2023-07-31T05:07:24;16.70;98.70
3356;DHT22;1691;52.486;13.374;2023-07-31T05:09:51;16.70;98.70
3356;DHT22;1691;52.486;13.374;2023-07-31T05:12:17;16.70;98.70
3356;DHT22;1691;52.486;13.374;2023-07-31T05:14:44;16.80;98.70
3356;DHT22;1691;52.486;13.374;2023-07-31T05:17:11;16.80;98.70
3356;DHT22;1691;52.486;13.374;2023-07-31T05:19:38;16.90;98.70
3356;DHT22;1691;52.486;13.374;2023-07-31T05:22:05;17.00;98.70
3356;DHT22;1691;52.486;13.374;2023-07-31T05:24:32;17.10;98.70
3356;DHT22;1691;52.486;13.374;2023-07-31T05:27:00;17.10;98.70
3356;DHT22;1691;52.486;13.374;2023-07-31T05:29:27;17.20;98.70
3356;DHT22;1691;52.486;13.374;2023-07-31T05:31:54;17.20;98.70
3356;DHT22;1691;52.486;13.374;2023-07-31T05:34:21;17.20;98.70
3356;DHT22;1691;52.486;13.374;2023-07-31T05:36:47;17.20;98.70
3356;DHT22;1691;52.486;13.374;2023-07-31T05:39:14;17.20;98.70
3356;DHT22;1691;52.486;13.374;2023-07-31T05:41:41;17.20;98.70
3356;DHT22;1691;52.486;13.374;2023-07-31T05:44:08;17.20;98.70
3356;DHT22;1691;52.486;13.374;2023-07-31T05:46:35;17.20;98.70
3356;DHT22;1691;52.486;13.374;2023-07-31T05:49:02;17.20;98.70
3356;DHT22;1691;52.486;13.374;2023-07-31T05:51:29;17.20;98.70
3356;DHT22;1691;52.486;13.374;2023-07-31T05:53:56;17.20;98.70
3356;DHT22;1691;52.486;13.374;2023-07-31T05:56:23;17.20;98.70
3356;DHT22;1691;52.486;13.374;2023-07-31T05:58:49;17.30;98.70
3356;DHT22;1691;52.486;13.374;2023-07-31T06:01:17;17.30;98.70
3356;DHT22;1691;52.486;13.374;2023-07-31T06:03:44;17.40;98.70
3356;DHT22;1691;52.486;13.374;2023-07-31T06:06:11;17.40;98.70
3356;DHT22;1691;52.486;13.374;2023-07-31T06:08:38;17.40;98.70
3356;DHT22;1691;52.486;13.374;2023-07-31T06:11:05;17.50;98.70
3356;DHT22;1691;52.486;13.374;2023-07-31T06:13:32;17.50;98.70
3356;DHT22;1691;52.486;13.374;2023-07-31T06:15:59;17.60;98.70
3356;DHT22;1691;52.486;13.374;2023-07-31T06:18:26;17.60;98.70
3356;DHT22;1691;52.486;13.374;2023-07-31T06:20:53;17.70;98.70
3356;DHT22;1691;52.486;13.374;2023-07-31T06:23:20;17.70;98.70
3356;DHT22;1691;52.486;13.374;2023-07-31T06:25:47;17.80;98.70
3356;DHT22;1691;52.486;13.374;2023-07-31T06:28:14;17.80;98.70
3356;DHT22;1691;52.486;13.374;2023-07-31T06:30:41;17.80;98.70
3356;DHT22;1691;52.486;13.374;2023-07-31T06:33:08;17.80;98.70
3356;DHT22;1691;52.486;13.374;2023-07-31T06:35:36;17.90;98.70
3356;DHT22;1691;52.486;13.374;2023-07-31T06:38:03;17.90;98.70
3356;DHT22;1691;52.486;13.374;2023-07-31T06:40:30;18.00;98.70
3356;DHT22;1691;52.486;13.374;2023-07-31T06:42:57;18.10;98.70
3356;DHT22;1691;52.486;13.374;2023-07-31T06:45:23;18.20;98.70
3356;DHT22;1691;52.486;13.374;2023-07-31T06:47:51;18.40;98.70
3356;DHT22;1691;52.486;13.374;2023-07-31T06:50:17;18.40;98.70
3356;DHT22;1691;52.486;13.374;2023-07-31T06:52:44;18.50;98.70
3356;DHT22;1691;52.486;13.374;2023-07-31T06:55:21;18.50;98.70
3356;DHT22;1691;52.486;13.374;2023-07-31T06:57:52;18.50;98.70
3356;DHT22;1691;52.486;13.374;2023-07-31T07:00:20;18.50;98.70
3356;DHT22;1691;52.486;13.374;2023-07-31T07:02:48;18.60;98.70
3356;DHT22;1691;52.486;13.374;2023-07-31T07:05:16;18.60;98.70
3356;DHT22;1691;52.486;13.374;2023-07-31T07:07:44;18.70;98.70
3356;DHT22;1691;52.486;13.374;2023-07-31T07:10:11;18.70;98.70
3356;DHT22;1691;52.486;13.374;2023-07-31T07:12:37;18.70;98.70
3356;DHT22;1691;52.486;13.374;2023-07-31T07:15:05;18.80;98.70
3356;DHT22;1691;52.486;13.374;2023-07-31T07:17:32;18.80;98.70
3356;DHT22;1691;52.486;13.374;2023-07-31T07:20:00;18.80;98.70
3356;DHT22;1691;52.486;13.374;2023-07-31T07:22:27;18.70;98.70
3356;DHT22;1691;52.486;13.374;2023-07-31T07:24:55;18.70;98.70
3356;DHT22;1691;52.486;13.374;2023-07-31T07:27:22;18.80;98.70
3356;DHT22;1691;52.486;13.374;2023-07-31T07:29:51;18.80;98.70
3356;DHT22;1691;52.486;13.374;2023-07-31T07:32:20;19.00;98.70
3356;DHT22;1691;52.486;13.374;2023-07-31T07:34:48;19.00;98.70
3356;DHT22;1691;52.486;13.374;2023-07-31T07:37:15;19.10;98.70
3356;DHT22;1691;52.486;13.374;2023-07-31T07:39:43;19.30;98.60
3356;DHT22;1691;52.486;13.374;2023-07-31T07:42:10;19.40;98.40
3356;DHT22;1691;52.486;13.374;2023-07-31T07:44:37;19.60;98.10
3356;DHT22;1691;52.486;13.374;2023-07-31T07:47:04;19.70;97.70
3356;DHT22;1691;52.486;13.374;2023-07-31T07:49:33;19.90;97.50
3356;DHT22;1691;52.486;13.374;2023-07-31T07:52:02;20.10;97.20
3356;DHT22;1691;52.486;13.374;2023-07-31T07:54:30;20.20;96.50
3356;DHT22;1691;52.486;13.374;2023-07-31T07:56:57;20.30;96.20
3356;DHT22;1691;52.486;13.374;2023-07-31T07:59:24;20.20;95.90
3356;DHT22;1691;52.486;13.374;2023-07-31T08:01:51;20.10;95.90
3356;DHT22;1691;52.486;13.374;2023-07-31T08:04:18;20.00;95.80
3356;DHT22;1691;52.486;13.374;2023-07-31T08:06:44;19.80;96.00
3356;DHT22;1691;52.486;13.374;2023-07-31T08:09:11;19.70;96.30
3356;DHT22;1691;52.486;13.374;2023-07-31T08:11:38;19.60;96.70
3356;DHT22;1691;52.486;13.374;2023-07-31T08:14:05;19.40;96.70
3356;DHT22;1691;52.486;13.374;2023-07-31T08:16:32;19.20;97.00
3356;DHT22;1691;52.486;13.374;2023-07-31T08:18:59;19.10;97.40
3356;DHT22;1691;52.486;13.374;2023-07-31T08:21:26;19.00;97.60
3356;DHT22;1691;52.486;13.374;2023-07-31T08:23:52;18.90;98.00
3356;DHT22;1691;52.486;13.374;2023-07-31T08:26:20;19.00;98.30
3356;DHT22;1691;52.486;13.374;2023-07-31T08:28:47;19.00;98.50
3356;DHT22;1691;52.486;13.374;2023-07-31T08:31:14;19.10;98.70
3356;DHT22;1691;52.486;13.374;2023-07-31T08:33:41;19.20;98.70
3356;DHT22;1691;52.486;13.374;2023-07-31T08:36:08;19.30;98.70
3356;DHT22;1691;52.486;13.374;2023-07-31T08:38:34;19.50;98.60
3356;DHT22;1691;52.486;13.374;2023-07-31T08:41:03;19.50;98.60
3356;DHT22;1691;52.486;13.374;2023-07-31T08:43:31;19.60;98.50
3356;DHT22;1691;52.486;13.374;2023-07-31T08:45:59;19.70;98.40
3356;DHT22;1691;52.486;13.374;2023-07-31T08:48:26;19.70;98.20
3356;DHT22;1691;52.486;13.374;2023-07-31T08:50:53;19.80;98.20
3356;DHT22;1691;52.486;13.374;2023-07-31T08:53:22;19.80;98.10
3356;DHT22;1691;52.486;13.374;2023-07-31T08:55:49;20.00;97.90
3356;DHT22;1691;52.486;13.374;2023-07-31T08:58:17;20.10;97.60
3356;DHT22;1691;52.486;13.374;2023-07-31T09:00:46;20.20;97.10
3356;DHT22;1691;52.486;13.374;2023-07-31T09:03:15;20.20;96.80
3356;DHT22;1691;52.486;13.374;2023-07-31T09:05:46;20.30;96.60
3356;DHT22;1691;52.486;13.374;2023-07-31T09:08:17;20.40;96.30
3356;DHT22;1691;52.486;13.374;2023-07-31T09:10:46;20.50;96.10
3356;DHT22;1691;52.486;13.374;2023-07-31T09:13:13;20.60;95.80
3356;DHT22;1691;52.486;13.374;2023-07-31T09:15:44;20.80;95.40
3356;DHT22;1691;52.486;13.374;2023-07-31T09:18:11;20.80;95.00
3356;DHT22;1691;52.486;13.374;2023-07-31T09:20:38;20.90;94.70
3356;DHT22;1691;52.486;13.374;2023-07-31T09:23:12;20.80;94.40
3356;DHT22;1691;52.486;13.374;2023-07-31T09:25:43;20.80;94.10
3356;DHT22;1691;52.486;13.374;2023-07-31T09:28:11;20.70;94.10
3356;DHT22;1691;52.486;13.374;2023-07-31T09:30:49;20.60;94.30
3356;DHT22;1691;52.486;13.374;2023-07-31T09:33:18;20.40;94.40
3356;DHT22;1691;52.486;13.374;2023-07-31T09:35:46;20.20;94.70
3356;DHT22;1691;52.486;13.374;2023-07-31T09:38:15;19.90;95.10
3356;DHT22;1691;52.486;13.374;2023-07-31T09:40:46;19.70;95.60
3356;DHT22;1691;52.486;13.374;2023-07-31T09:43:17;19.60;96.10
3356;DHT22;1691;52.486;13.374;2023-07-31T09:45:45;19.50;96.40
3356;DHT22;1691;52.486;13.374;2023-07-31T09:48:14;19.30;96.70
3356;DHT22;1691;52.486;13.374;2023-07-31T09:50:47;19.30;97.00
3356;DHT22;1691;52.486;13.374;2023-07-31T09:53:15;19.30;97.20
3356;DHT22;1691;52.486;13.374;2023-07-31T09:55:43;19.30;97.20
3356;DHT22;1691;52.486;13.374;2023-07-31T09:58:12;19.30;97.40
3356;DHT22;1691;52.486;13.374;2023-07-31T10:00:40;19.30;97.30
3356;DHT22;1691;52.486;13.374;2023-07-31T10:03:10;19.40;97.30
3356;DHT22;1691;52.486;13.374;2023-07-31T10:05:42;19.50;97.30
3356;DHT22;1691;52.486;13.374;2023-07-31T10:08:14;19.70;97.10
3356;DHT22;1691;52.486;13.374;2023-07-31T10:10:44;19.80;96.90
3356;DHT22;1691;52.486;13.374;2023-07-31T10:13:14;20.00;96.90
3356;DHT22;1691;52.486;13.374;2023-07-31T10:15:42;20.20;96.60
3356;DHT22;1691;52.486;13.374;2023-07-31T10:18:10;20.30;96.20
3356;DHT22;1691;52.486;13.374;2023-07-31T10:20:38;20.40;95.90
3356;DHT22;1691;52.486;13.374;2023-07-31T10:23:06;20.50;95.60
3356;DHT22;1691;52.486;13.374;2023-07-31T10:25:34;20.50;95.50
3356;DHT22;1691;52.486;13.374;2023-07-31T10:28:01;20.60;95.20
3356;DHT22;1691;52.486;13.374;2023-07-31T10:30:30;20.50;95.10
3356;DHT22;1691;52.486;13.374;2023-07-31T10:32:59;20.40;95.30
3356;DHT22;1691;52.486;13.374;2023-07-31T10:35:27;20.40;95.70
3356;DHT22;1691;52.486;13.374;2023-07-31T10:37:54;20.50;96.00
3356;DHT22;1691;52.486;13.374;2023-07-31T10:40:26;20.70;95.80
3356;DHT22;1691;52.486;13.374;2023-07-31T10:42:55;21.00;95.40
3356;DHT22;1691;52.486;13.374;2023-07-31T10:48:03;21.50;94.70
3356;DHT22;1691;52.486;13.374;2023-07-31T10:50:32;22.10;94.10
3356;DHT22;1691;52.486;13.374;2023-07-31T10:53:03;22.60;93.10
3356;DHT22;1691;52.486;13.374;2023-07-31T10:55:38;23.10;91.90
3356;DHT22;1691;52.486;13.374;2023-07-31T10:58:06;23.50;90.70
3356;DHT22;1691;52.486;13.374;2023-07-31T11:00:34;23.80;89.90
3356;DHT22;1691;52.486;13.374;2023-07-31T11:05:51;24.40;86.90
3356;DHT22;1691;52.486;13.374;2023-07-31T11:08:27;24.60;85.20
3356;DHT22;1691;52.486;13.374;2023-07-31T11:15:55;24.90;81.70
3356;DHT22;1691;52.486;13.374;2023-07-31T11:18:22;24.70;81.00
3356;DHT22;1691;52.486;13.374;2023-07-31T11:20:49;24.50;80.80
3356;DHT22;1691;52.486;13.374;2023-07-31T11:23:17;24.30;81.10
3356;DHT22;1691;52.486;13.374;2023-07-31T11:25:44;24.30;81.00
3356;DHT22;1691;52.486;13.374;2023-07-31T11:28:16;24.30;80.60
3356;DHT22;1691;52.486;13.374;2023-07-31T11:30:45;24.20;79.80
3356;DHT22;1691;52.486;13.374;2023-07-31T11:33:13;24.20;79.50
3356;DHT22;1691;52.486;13.374;2023-07-31T11:35:48;24.10;79.30
3356;DHT22;1691;52.486;13.374;2023-07-31T11:38:26;24.10;78.20
3356;DHT22;1691;52.486;13.374;2023-07-31T11:41:01;23.90;77.80
3356;DHT22;1691;52.486;13.374;2023-07-31T11:43:32;23.90;78.00
3356;DHT22;1691;52.486;13.374;2023-07-31T11:46:00;23.70;77.60
3356;DHT22;1691;52.486;13.374;2023-07-31T11:48:31;23.60;77.40
3356;DHT22;1691;52.486;13.374;2023-07-31T11:51:02;23.60;77.20
3356;DHT22;1691;52.486;13.374;2023-07-31T11:53:43;23.50;77.00
3356;DHT22;1691;52.486;13.374;2023-07-31T11:56:13;23.40;77.20
3356;DHT22;1691;52.486;13.374;2023-07-31T11:58:41;23.20;77.40
3356;DHT22;1691;52.486;13.374;2023-07-31T12:01:09;23.10;77.60
3356;DHT22;1691;52.486;13.374;2023-07-31T12:03:36;23.00;78.00
3356;DHT22;1691;52.486;13.374;2023-07-31T12:06:03;22.80;78.30
3356;DHT22;1691;52.486;13.374;2023-07-31T12:08:30;22.70;78.90
3356;DHT22;1691;52.486;13.374;2023-07-31T12:11:03;22.60;79.30
3356;DHT22;1691;52.486;13.374;2023-07-31T12:13:31;22.60;79.30
3356;DHT22;1691;52.486;13.374;2023-07-31T12:16:03;22.70;79.50
3356;DHT22;1691;52.486;13.374;2023-07-31T12:18:34;22.90;78.90
3356;DHT22;1691;52.486;13.374;2023-07-31T12:21:05;23.00;78.50
3356;DHT22;1691;52.486;13.374;2023-07-31T12:23:34;23.10;78.30
3356;DHT22;1691;52.486;13.374;2023-07-31T12:26:10;23.20;78.00
3356;DHT22;1691;52.486;13.374;2023-07-31T12:28:40;23.20;77.60
3356;DHT22;1691;52.486;13.374;2023-07-31T12:31:15;23.20;77.20
3356;DHT22;1691;52.486;13.374;2023-07-31T12:33:44;23.30;76.90
3356;DHT22;1691;52.486;13.374;2023-07-31T12:36:13;23.40;76.50
3356;DHT22;1691;52.486;13.374;2023-07-31T12:38:41;23.60;75.90
3356;DHT22;1691;52.486;13.374;2023-07-31T12:41:08;23.80;75.40
3356;DHT22;1691;52.486;13.374;2023-07-31T12:43:44;24.00;74.60
3356;DHT22;1691;52.486;13.374;2023-07-31T12:46:11;24.10;74.10
3356;DHT22;1691;52.486;13.374;2023-07-31T12:48:39;24.10;74.10
3356;DHT22;1691;52.486;13.374;2023-07-31T12:51:06;24.10;73.70
3356;DHT22;1691;52.486;13.374;2023-07-31T12:53:35;24.10;73.90
3356;DHT22;1691;52.486;13.374;2023-07-31T12:56:02;24.00;74.10
3356;DHT22;1691;52.486;13.374;2023-07-31T12:58:29;24.00;74.10
3356;DHT22;1691;52.486;13.374;2023-07-31T13:00:56;23.90;74.20
3356;DHT22;1691;52.486;13.374;2023-07-31T13:03:23;23.90;74.40
3356;DHT22;1691;52.486;13.374;2023-07-31T13:05:50;23.90;74.40
3356;DHT22;1691;52.486;13.374;2023-07-31T13:08:19;23.80;74.40
3356;DHT22;1691;52.486;13.374;2023-07-31T13:10:45;23.60;74.40
3356;DHT22;1691;52.486;13.374;2023-07-31T13:13:12;23.50;74.80
3356;DHT22;1691;52.486;13.374;2023-07-31T13:15:39;23.50;75.20
3356;DHT22;1691;52.486;13.374;2023-07-31T13:18:06;23.50;75.20
3356;DHT22;1691;52.486;13.374;2023-07-31T13:20:33;23.40;75.40
3356;DHT22;1691;52.486;13.374;2023-07-31T13:23:00;23.40;75.60
3356;DHT22;1691;52.486;13.374;2023-07-31T13:25:27;23.40;75.60
3356;DHT22;1691;52.486;13.374;2023-07-31T13:27:55;23.30;75.60
3356;DHT22;1691;52.486;13.374;2023-07-31T13:30:22;23.20;75.90
3356;DHT22;1691;52.486;13.374;2023-07-31T13:32:49;23.20;76.30
3356;DHT22;1691;52.486;13.374;2023-07-31T13:35:16;23.20;76.50
3356;DHT22;1691;52.486;13.374;2023-07-31T13:37:42;23.30;76.50
3356;DHT22;1691;52.486;13.374;2023-07-31T13:40:10;23.50;76.10
3356;DHT22;1691;52.486;13.374;2023-07-31T13:42:36;23.70;75.40
3356;DHT22;1691;52.486;13.374;2023-07-31T13:45:04;23.90;74.80
3356;DHT22;1691;52.486;13.374;2023-07-31T13:47:33;24.00;74.20
3356;DHT22;1691;52.486;13.374;2023-07-31T13:50:01;24.20;73.90
3356;DHT22;1691;52.486;13.374;2023-07-31T13:52:28;24.30;73.70
3356;DHT22;1691;52.486;13.374;2023-07-31T13:54:55;24.40;73.10
3356;DHT22;1691;52.486;13.374;2023-07-31T13:57:22;24.40;72.90
3356;DHT22;1691;52.486;13.374;2023-07-31T13:59:50;24.40;72.60
3356;DHT22;1691;52.486;13.374;2023-07-31T14:02:17;24.30;72.60
3356;DHT22;1691;52.486;13.374;2023-07-31T14:04:44;24.30;72.90
3356;DHT22;1691;52.486;13.374;2023-07-31T14:07:11;24.30;72.90
3356;DHT22;1691;52.486;13.374;2023-07-31T14:09:38;24.30;72.80
3356;DHT22;1691;52.486;13.374;2023-07-31T14:12:05;24.30;72.60
3356;DHT22;1691;52.486;13.374;2023-07-31T14:14:32;24.30;72.80
3356;DHT22;1691;52.486;13.374;2023-07-31T14:17:01;24.30;72.80
3356;DHT22;1691;52.486;13.374;2023-07-31T14:19:28;24.40;72.60
3356;DHT22;1691;52.486;13.374;2023-07-31T14:21:58;24.40;72.40
3356;DHT22;1691;52.486;13.374;2023-07-31T14:24:37;24.40;72.20
3356;DHT22;1691;52.486;13.374;2023-07-31T14:27:05;24.30;72.40
3356;DHT22;1691;52.486;13.374;2023-07-31T14:29:32;24.10;72.40
3356;DHT22;1691;52.486;13.374;2023-07-31T14:31:58;23.90;73.10
3356;DHT22;1691;52.486;13.374;2023-07-31T14:34:27;23.80;73.70
3356;DHT22;1691;52.486;13.374;2023-07-31T14:36:53;23.70;73.50
3356;DHT22;1691;52.486;13.374;2023-07-31T14:39:20;23.70;73.50
3356;DHT22;1691;52.486;13.374;2023-07-31T14:41:47;23.70;73.50
3356;DHT22;1691;52.486;13.374;2023-07-31T14:44:14;23.80;73.30
3356;DHT22;1691;52.486;13.374;2023-07-31T14:46:41;23.80;73.10
3356;DHT22;1691;52.486;13.374;2023-07-31T14:49:09;23.80;72.90
3356;DHT22;1691;52.486;13.374;2023-07-31T14:51:36;23.90;72.80
3356;DHT22;1691;52.486;13.374;2023-07-31T14:54:03;23.80;72.60
3356;DHT22;1691;52.486;13.374;2023-07-31T14:56:29;23.70;72.40
3356;DHT22;1691;52.486;13.374;2023-07-31T14:58:57;23.70;72.40
3356;DHT22;1691;52.486;13.374;2023-07-31T15:01:24;23.60;72.20
3356;DHT22;1691;52.486;13.374;2023-07-31T15:03:51;23.50;72.40
3356;DHT22;1691;52.486;13.374;2023-07-31T15:06:18;23.40;72.80
3356;DHT22;1691;52.486;13.374;2023-07-31T15:08:45;23.30;72.80
3356;DHT22;1691;52.486;13.374;2023-07-31T15:11:12;23.30;73.10
3356;DHT22;1691;52.486;13.374;2023-07-31T15:13:39;23.20;73.50
3356;DHT22;1691;52.486;13.374;2023-07-31T15:16:05;23.10;74.10
3356;DHT22;1691;52.486;13.374;2023-07-31T15:18:32;23.00;74.40
3356;DHT22;1691;52.486;13.374;2023-07-31T15:20:59;23.00;75.20
3356;DHT22;1691;52.486;13.374;2023-07-31T15:23:26;22.90;76.70
3356;DHT22;1691;52.486;13.374;2023-07-31T15:25:53;22.80;78.00
3356;DHT22;1691;52.486;13.374;2023-07-31T15:28:20;22.70;79.10
3356;DHT22;1691;52.486;13.374;2023-07-31T15:30:47;22.70;79.80
3356;DHT22;1691;52.486;13.374;2023-07-31T15:33:15;22.60;80.80
3356;DHT22;1691;52.486;13.374;2023-07-31T15:35:42;22.60;81.30
3356;DHT22;1691;52.486;13.374;2023-07-31T15:38:10;22.60;81.70
3356;DHT22;1691;52.486;13.374;2023-07-31T15:40:38;22.50;81.90
3356;DHT22;1691;52.486;13.374;2023-07-31T15:43:05;22.50;82.60
3356;DHT22;1691;52.486;13.374;2023-07-31T15:45:32;22.50;83.20
3356;DHT22;1691;52.486;13.374;2023-07-31T15:47:59;22.50;83.90
3356;DHT22;1691;52.486;13.374;2023-07-31T15:50:26;22.60;84.50
3356;DHT22;1691;52.486;13.374;2023-07-31T15:52:55;22.70;84.50
3356;DHT22;1691;52.486;13.374;2023-07-31T15:55:22;22.80;84.30
3356;DHT22;1691;52.486;13.374;2023-07-31T15:57:48;22.90;84.70
3356;DHT22;1691;52.486;13.374;2023-07-31T16:00:16;22.90;84.50
3356;DHT22;1691;52.486;13.374;2023-07-31T16:02:43;22.90;84.10
3356;DHT22;1691;52.486;13.374;2023-07-31T16:05:13;23.00;84.10
3356;DHT22;1691;52.486;13.374;2023-07-31T16:07:40;23.00;83.90
3356;DHT22;1691;52.486;13.374;2023-07-31T16:10:07;23.00;83.80